Time;durP1;ratioP1;P1;durP2;ratioP2;P2;SDS_P1;SDS_P2;PMS_P1;PMS_P2;Temp;Humidity;BMP_temperature;BMP_pressure;BME280_temperature;BME280_humidity;BME280_pressure;Samples;Min_cycle;Max_cycle;Signal;HPM_P1;HPM_P2
2022/07/13 00:00:36;;;;;;;0.70;0.40;;;;;;;12.13;100.00;97291.89;1819400;78;20856;-63
2022/07/13 00:03:03;;;;;;;2.90;0.60;;;;;;;12.13;100.00;97281.16;1815846;78;20964;-63
2022/07/13 00:05:30;;;;;;;1.15;0.47;;;;;;;12.14;100.00;97297.52;1817183;78;21411;-63
2022/07/13 00:07:56;;;;;;;1.40;0.60;;;;;;;12.18;100.00;97276.97;1820726;78;20952;-63
2022/07/13 00:10:22;;;;;;;0.40;0.40;;;;;;;12.21;100.00;97280.92;1810303;78;21370;-62
2022/07/13 00:12:49;;;;;;;1.02;0.60;;;;;;;12.22;100.00;97281.94;1822921;78;21316;-63
2022/07/13 00:15:15;;;;;;;1.32;0.55;;;;;;;12.23;100.00;97270.11;1813356;78;21399;-63
2022/07/13 00:17:42;;;;;;;0.70;0.55;;;;;;;12.25;100.00;97284.00;1823150;78;20935;-63
2022/07/13 00:20:10;;;;;;;0.88;0.50;;;;;;;12.27;100.00;97269.70;1813325;78;20856;-62
2022/07/13 00:22:37;;;;;;;2.10;0.65;;;;;;;12.30;100.00;97274.44;1812264;78;21091;-63
2022/07/13 00:25:05;;;;;;;1.05;0.57;;;;;;;12.30;100.00;97270.41;1816249;78;20955;-62
2022/07/13 00:27:32;;;;;;;0.72;0.57;;;;;;;12.31;100.00;97268.52;1817537;78;20897;-63
2022/07/13 00:29:59;;;;;;;1.95;0.75;;;;;;;12.32;100.00;97253.97;1816382;78;20939;-63
2022/07/13 00:32:26;;;;;;;0.80;0.50;;;;;;;12.29;100.00;97252.71;1821037;78;20911;-62
2022/07/13 00:34:53;;;;;;;1.95;0.68;;;;;;;12.31;100.00;97255.89;1810483;78;21088;-63
2022/07/13 00:37:19;;;;;;;0.60;0.50;;;;;;;12.31;100.00;97254.55;1821392;78;21364;-62
2022/07/13 00:39:45;;;;;;;1.65;0.80;;;;;;;12.31;100.00;97243.81;1817943;78;20966;-62
2022/07/13 00:42:12;;;;;;;1.65;0.78;;;;;;;12.33;100.00;97257.70;1754373;81;20952;-62
2022/07/13 00:44:39;;;;;;;0.60;0.60;;;;;;;12.32;100.00;97241.34;1749157;81;20927;-62
2022/07/13 00:47:05;;;;;;;0.65;0.60;;;;;;;12.33;100.00;97250.98;1760120;81;21210;-62
2022/07/13 00:49:32;;;;;;;1.65;0.70;;;;;;;12.34;100.00;97249.86;1818117;78;21035;-63
2022/07/13 00:51:58;;;;;;;1.98;0.88;;;;;;;12.34;100.00;97253.12;1813330;78;20944;-62
2022/07/13 00:54:30;;;;;;;2.70;1.00;;;;;;;12.32;100.00;97265.51;1817293;78;20935;-63
2022/07/13 00:56:58;;;;;;;1.22;0.70;;;;;;;12.32;100.00;97246.71;1822828;78;20876;-62
2022/07/13 00:59:25;;;;;;;1.90;0.60;;;;;;;12.31;100.00;97243.81;1812816;78;21231;-62
2022/07/13 01:01:54;;;;;;;1.98;0.70;;;;;;;12.29;100.00;97243.31;1808100;78;20946;-62
2022/07/13 01:04:23;;;;;;;0.88;0.65;;;;;;;12.31;100.00;97246.50;1815906;78;21836;-62
2022/07/13 01:06:53;;;;;;;1.12;0.70;;;;;;;12.30;100.00;97240.88;1817418;78;21395;-62
2022/07/13 01:09:21;;;;;;;1.50;0.80;;;;;;;12.30;100.00;97248.93;1817648;78;20872;-62
2022/07/13 01:11:47;;;;;;;2.80;0.80;;;;;;;12.29;100.00;97241.97;1814054;78;21615;-62
2022/07/13 01:14:14;;;;;;;1.35;0.70;;;;;;;12.29;100.00;97250.03;1821123;78;20880;-63
2022/07/13 01:16:41;;;;;;;2.70;0.80;;;;;;;12.29;100.00;97240.63;1816546;78;20916;-62
2022/07/13 01:19:12;;;;;;;2.20;0.85;;;;;;;12.29;100.00;97248.69;1810006;78;21434;-62
2022/07/13 01:21:42;;;;;;;2.90;0.72;;;;;;;12.22;100.00;97233.61;1821539;78;20860;-62
2022/07/13 01:24:09;;;;;;;1.72;0.80;;;;;;;12.17;100.00;97244.54;1823508;78;21259;-62
2022/07/13 01:26:37;;;;;;;1.25;0.68;;;;;;;12.14;100.00;97241.14;1823253;78;21038;-62
2022/07/13 01:29:07;;;;;;;2.00;0.80;;;;;;;12.11;100.00;97218.95;1818199;78;20920;-62
2022/07/13 01:31:37;;;;;;;1.42;0.80;;;;;;;12.13;100.00;97224.78;1823298;78;20980;-62
2022/07/13 01:34:04;;;;;;;3.27;1.02;;;;;;;12.15;100.00;97224.48;1813072;78;21529;-62
2022/07/13 01:36:32;;;;;;;3.67;0.90;;;;;;;12.14;100.00;97223.69;1813630;78;21185;-62
2022/07/13 01:38:58;;;;;;;2.65;0.82;;;;;;;12.14;100.00;97225.03;1821099;78;21357;-62
2022/07/13 01:41:27;;;;;;;1.85;0.80;;;;;;;12.17;100.00;97223.06;1813132;78;20907;-62
2022/07/13 01:43:53;;;;;;;1.55;0.88;;;;;;;12.20;100.00;97221.64;1816357;78;20911;-62
2022/07/13 01:46:20;;;;;;;5.22;0.80;;;;;;;12.22;100.00;97217.50;1817006;78;20872;-62
2022/07/13 01:48:47;;;;;;;1.98;0.80;;;;;;;12.24;100.00;97209.95;1813052;78;21050;-61
2022/07/13 01:51:13;;;;;;;1.15;0.88;;;;;;;12.26;100.00;97209.06;1817364;78;20951;-62
2022/07/13 01:53:40;;;;;;;1.72;0.82;;;;;;;12.28;100.00;97213.56;1822320;78;20904;-62
2022/07/13 01:56:07;;;;;;;1.25;0.70;;;;;;;12.28;100.00;97206.84;1816926;78;20919;-62
2022/07/13 01:58:34;;;;;;;4.78;1.05;;;;;;;12.30;100.00;97206.52;1818158;78;21423;-62
2022/07/13 02:01:01;;;;;;;1.12;0.72;;;;;;;12.30;100.00;97205.97;1807454;78;21114;-61
2022/07/13 02:03:31;;;;;;;1.25;0.60;;;;;;;12.30;100.00;97199.26;1818040;78;20908;-63
2022/07/13 02:05:59;;;;;;;1.45;0.60;;;;;;;12.31;100.00;97203.53;1816982;78;21422;-63
2022/07/13 02:08:29;;;;;;;1.62;0.60;;;;;;;12.33;100.00;97203.20;1823252;78;20923;-62
2022/07/13 02:10:58;;;;;;;1.75;1.10;;;;;;;12.34;100.00;97210.92;1823294;78;20916;-62
2022/07/13 02:13:26;;;;;;;2.22;0.98;;;;;;;12.37;100.00;97209.50;1823172;78;21151;-62
2022/07/13 02:15:53;;;;;;;1.27;0.70;;;;;;;12.36;100.00;97211.97;1812802;78;20935;-62
2022/07/13 02:18:21;;;;;;;0.78;0.65;;;;;;;12.34;100.00;97202.87;1819194;78;21360;-61
2022/07/13 02:20:48;;;;;;;1.27;0.60;;;;;;;12.34;100.00;97204.21;1815092;78;20852;-62
2022/07/13 02:23:15;;;;;;;1.00;0.60;;;;;;;12.33;100.00;97198.63;1814107;78;20967;-62
2022/07/13 02:25:42;;;;;;;1.12;0.62;;;;;;;12.33;100.00;97208.02;1761509;81;21121;-62
2022/07/13 02:28:09;;;;;;;1.27;0.50;;;;;;;12.31;100.00;97198.70;1765400;81;21396;-62
2022/07/13 02:30:36;;;;;;;0.78;0.50;;;;;;;12.30;100.00;97204.63;1767929;81;20892;-62
2022/07/13 02:33:03;;;;;;;1.77;0.70;;;;;;;12.29;100.00;97208.41;1767855;81;20935;-62
2022/07/13 02:35:30;;;;;;;1.25;0.60;;;;;;;12.30;100.00;97210.00;1768103;81;20931;-62
2022/07/13 02:37:59;;;;;;;1.60;0.60;;;;;;;12.30;100.00;97200.59;1765802;81;21122;-62
2022/07/13 02:40:26;;;;;;;1.30;0.70;;;;;;;12.29;100.00;97216.46;1761039;81;21416;-62
2022/07/13 02:42:54;;;;;;;0.93;0.60;;;;;;;12.31;100.00;97211.59;1767758;81;20923;-62
2022/07/13 02:45:20;;;;;;;0.82;0.60;;;;;;;12.34;100.00;97217.64;1762768;81;20908;-62
2022/07/13 02:47:48;;;;;;;1.40;0.60;;;;;;;12.34;100.00;97218.98;1758425;81;21019;-62
2022/07/13 02:50:15;;;;;;;2.17;0.90;;;;;;;12.35;100.00;97212.52;1767420;81;21249;-63
2022/07/13 02:52:42;;;;;;;0.65;0.65;;;;;;;12.36;100.00;97223.47;1754110;81;20911;-62
2022/07/13 02:55:09;;;;;;;1.50;0.80;;;;;;;12.34;100.00;97214.95;1767748;81;20892;-62
2022/07/13 02:57:36;;;;;;;1.15;0.70;;;;;;;12.34;100.00;97221.67;1763424;81;20954;-62
2022/07/13 03:00:07;;;;;;;0.95;0.60;;;;;;;12.34;100.00;97223.02;1763126;81;20995;-62
2022/07/13 03:44:37;;;;;;;1.72;1.40;;;;;;;11.87;100.00;97201.21;1890712;76;27385;-61
2022/07/13 03:47:04;;;;;;;1.25;0.90;;;;;;;11.81;100.00;97198.47;1861553;77;20973;-61
2022/07/13 03:49:32;;;;;;;1.67;1.05;;;;;;;11.85;100.00;97200.74;1861523;77;21225;-61
2022/07/13 03:51:59;;;;;;;1.25;0.82;;;;;;;11.89;100.00;97208.96;1861464;77;20863;-61
2022/07/13 03:54:26;;;;;;;1.22;0.70;;;;;;;11.93;100.00;97206.67;1861517;77;20867;-61
2022/07/13 03:56:53;;;;;;;0.98;0.80;;;;;;;12.00;100.00;97217.71;1861513;77;20911;-62
2022/07/13 03:59:19;;;;;;;1.85;0.90;;;;;;;12.07;100.00;97209.97;1861521;77;20867;-61
2022/07/13 04:01:46;;;;;;;1.55;0.90;;;;;;;12.15;100.00;97213.75;1861479;77;21946;-61
2022/07/13 04:04:13;;;;;;;1.37;0.85;;;;;;;12.20;100.00;97199.59;1861526;77;20915;-62
2022/07/13 04:06:41;;;;;;;2.65;1.00;;;;;;;12.24;100.00;97206.47;1861488;77;20887;-61
2022/07/13 04:09:08;;;;;;;3.80;0.80;;;;;;;12.26;100.00;97210.41;1861577;77;20891;-61
2022/07/13 04:11:36;;;;;;;1.90;0.88;;;;;;;12.31;100.00;97205.42;1861535;77;20895;-61
2022/07/13 04:14:02;;;;;;;0.82;0.60;;;;;;;12.34;100.00;97208.23;1861561;77;21263;-61
2022/07/13 04:16:29;;;;;;;2.47;0.85;;;;;;;12.36;100.00;97207.36;1861507;77;20867;-62
2022/07/13 04:18:56;;;;;;;3.25;1.10;;;;;;;12.43;100.00;97212.81;1861473;77;20852;-62
2022/07/13 04:21:23;;;;;;;1.72;0.93;;;;;;;12.46;100.00;97200.09;1861788;77;21433;-61
2022/07/13 04:23:50;;;;;;;1.55;1.22;;;;;;;12.48;100.00;97208.07;1861587;77;20956;-61
2022/07/13 04:26:17;;;;;;;1.62;0.80;;;;;;;12.51;100.00;97203.92;1861545;77;21101;-61
2022/07/13 04:28:44;;;;;;;1.02;0.85;;;;;;;12.50;100.00;97196.45;1861480;77;20880;-61
2022/07/13 04:31:13;;;;;;;1.45;0.80;;;;;;;12.53;100.00;97213.82;1861349;77;20911;-61
2022/07/13 04:33:40;;;;;;;2.30;0.93;;;;;;;12.55;100.00;97216.97;1861462;77;20864;-61
2022/07/13 04:36:08;;;;;;;2.10;0.90;;;;;;;12.57;100.00;97210.16;1861699;77;21374;-61
2022/07/13 04:38:35;;;;;;;2.00;0.88;;;;;;;12.59;100.00;97208.49;1861525;77;21260;-61
2022/07/13 04:41:02;;;;;;;1.55;0.75;;;;;;;12.59;100.00;97214.66;1861497;77;20871;-62
2022/07/13 04:43:29;;;;;;;3.80;1.65;;;;;;;12.59;100.00;97209.84;1852220;77;20880;-61
